LTAC/ESB METAR and TAF weather

Enter ICAO airport designator
Station Type Date Time Source
LTAC METAR 2019/09/20 19:50 UTC NOAA

LTAC 201950Z 32003KT 280V010 9999 SCT040 SCT100 15/07 Q1017 NOSIG


Station Type Date Time Source
LTAC Decoded METAR 2019/09/20 19:50 UTC NOAA

Ankara / Esenboga, Turkey (LTAC) 40-07N 032-59E 949M
Sep 20, 2019 - 03:50 PM EDT / 2019.09.20 1950 UTC
Wind: from the NW (320 degrees) at 3 MPH (3 KT) (direction variable):0
Visibility: greater than 7 mile(s):0
Sky conditions: partly cloudy
Temperature: 59 F (15 C)
Dew Point: 44 F (7 C)
Relative Humidity: 58%
Pressure (altimeter): 30.03 in. Hg (1017 hPa)
ob: LTAC 201950Z 32003KT 280V010 9999 SCT040 SCT100 15/07 Q1017 NOSIG
cycle: 20

Station Type Date Time Source
LTAC TAF 2019/09/20 18:03 UTC NOAA

TAF TAF LTAC 201640Z 2018/2118 33012KT 9999 SCT040
BECMG 2018/2021 VRB02KT
BECMG 2106/2108 01012KT

Example: see airport list